| time (UTC) | temp F | wind direction | speed knots | gust knots | rain 1hr in | rain 24hr in | rain mn in | humidity % | barometer mb |
| 20260902213018 | 94 | 348 | 1.7 | 4.3 | 0.00 | 0.00 | 0.00 | 54 | 1018.6 |
| 20260902212017 | 94 | 352 | 0.9 | 1.7 | 0.00 | 0.00 | 0.00 | 55 | 1018.6 |
| 20260902211017 | 95 | 341 | 0.9 | 2.6 | 0.00 | 0.00 | 0.00 | 54 | 1018.7 |
| 20260902210018 | 95 | 351 | 0.9 | 1.7 | 0.00 | 0.00 | 0.00 | 54 | 1018.7 |
| 20260902205016 | 94 | 351 | 0.9 | 3.5 | 0.00 | 0.00 | 0.00 | 53 | 1018.8 |
| 20260902204017 | 94 | 352 | 0.9 | 3.5 | 0.00 | 0.00 | 0.00 | 54 | 1018.9 |
| 20260902203017 | 96 | 349 | 0.0 | 2.6 | 0.00 | 0.00 | 0.00 | 55 | 1018.9 |
| 20260902202020 | 97 | 268 | 0.0 | 1.7 | 0.00 | 0.00 | 0.00 | 52 | 1019.0 |
| 20260902201018 | 96 | 295 | 0.0 | 1.7 | 0.00 | 0.00 | 0.00 | 54 | 1019.0 |
| 20260902200018 | 96 | 344 | 0.9 | 3.5 | 0.00 | 0.00 | 0.00 | 52 | 1019.1 |
| 20260902195018 | 96 | 355 | 0.9 | 3.5 | 0.00 | 0.00 | 0.00 | 53 | 1019.2 |
| 20260902194017 | 96 | 9 | 0.9 | 2.6 | 0.00 | 0.00 | 0.00 | 52 | 1019.3 |
| 20260902193018 | 97 | 346 | 1.7 | 4.3 | 0.00 | 0.00 | 0.00 | 51 | 1019.4 |
| 20260902192058 | 97 | 206 | 0.9 | 2.6 | 0.00 | 0.00 | 0.00 | 53 | 1019.6 |
| 20260902191019 | 98 | 331 | 0.9 | 2.6 | 0.00 | 0.00 | 0.00 | 50 | 1019.7 |
| 20260902190018 | 97 | 350 | 0.9 | 5.2 | 0.00 | 0.00 | 0.00 | 50 | 1019.7 |
| 20260902185038 | 97 | 6 | 0.9 | 2.6 | 0.00 | 0.00 | 0.00 | 51 | 1019.8 |
| 20260902184018 | 96 | 337 | 0.9 | 3.5 | 0.00 | 0.00 | 0.00 | 52 | 1019.9 |
| 20260902183018 | 97 | 172 | 0.9 | 2.6 | 0.00 | 0.00 | 0.00 | 53 | 1019.9 |
| 20260902182018 | 97 | 321 | 0.9 | 5.2 | 0.00 | 0.00 | 0.00 | 52 | 1020.0 |
| 20260902181039 | 98 | 350 | 0.9 | 5.2 | 0.00 | 0.00 | 0.00 | 49 | 1020.0 |
| 20260902180018 | 99 | 341 | 0.9 | 3.5 | 0.00 | 0.00 | 0.00 | 49 | 1020.1 |
| 20260902175038 | 98 | 313 | 0.9 | 1.7 | 0.00 | 0.00 | 0.00 | 51 | 1020.2 |
| 20260902174018 | 97 | 346 | 0.9 | 4.3 | 0.00 | 0.00 | 0.00 | 52 | 1020.3 |
| 20260902173019 | 97 | 343 | 0.9 | 4.3 | 0.00 | 0.00 | 0.00 | 53 | 1020.3 |
| 20260902172039 | 98 | 342 | 1.7 | 6.1 | 0.00 | 0.00 | 0.00 | 50 | 1020.5 |
| 20260902171019 | 99 | 349 | 0.9 | 4.3 | 0.00 | 0.00 | 0.00 | 50 | 1020.5 |
| 20260902170019 | 99 | 341 | 0.9 | 4.3 | 0.00 | 0.00 | 0.00 | 52 | 1020.5 |
| 20260902165016 | 99 | 337 | 0.9 | 2.6 | 0.00 | 0.00 | 0.00 | 50 | 1020.6 |
| 20260902164016 | 99 | 343 | 0.9 | 2.6 | 0.00 | 0.00 | 0.00 | 51 | 1020.6 |
| 20260902163016 | 98 | 213 | 0.9 | 1.7 | 0.00 | 0.00 | 0.00 | 52 | 1020.7 |
| 20260902162059 | 98 | 343 | 1.7 | 6.1 | 0.00 | 0.00 | 0.00 | 51 | 1020.7 |
| 20260902161040 | 97 | 342 | 0.9 | 3.5 | 0.00 | 0.00 | 0.00 | 54 | 1020.8 |
| 20260902160020 | 100 | 357 | 0.9 | 3.5 | 0.00 | 0.00 | 0.00 | 52 | 1020.9 |
| 20260902155039 | 101 | 336 | 0.9 | 2.6 | 0.00 | 0.00 | 0.00 | 50 | 1021.0 |
| 20260902154037 | 100 | 1 | 0.9 | 2.6 | 0.00 | 0.00 | 0.00 | 51 | 1021.1 |
| 20260902153018 | 100 | 322 | 0.9 | 2.6 | 0.00 | 0.00 | 0.00 | 52 | 1021.1 |
| 20260902152019 | 99 | 10 | 0.9 | 1.7 | 0.00 | 0.00 | 0.00 | 51 | 1021.1 |
| 20260902151102 | 97 | 330 | 0.0 | 1.7 | 0.00 | 0.00 | 0.00 | 53 | 1021.2 |
| 20260902150018 | 95 | 350 | 0.9 | 2.6 | 0.00 | 0.00 | 0.00 | 57 | 1021.2 |
| 20260902145018 | 95 | 345 | 0.9 | 4.3 | 0.00 | 0.00 | 0.00 | 57 | 1021.0 |
| 20260902144058 | 94 | 4 | 0.9 | 3.5 | 0.00 | 0.00 | 0.00 | 57 | 1021.1 |
| 20260902143038 | 94 | 353 | 0.9 | 1.7 | 0.00 | 0.00 | 0.00 | 59 | 1021.1 |
| 20260902142018 | 94 | 7 | 0.9 | 2.6 | 0.00 | 0.00 | 0.00 | 60 | 1021.3 |
| 20260902141019 | 91 | 346 | 0.9 | 2.6 | 0.00 | 0.00 | 0.00 | 62 | 1021.2 |
| 20260902140019 | 88 | 64 | 0.0 | 1.7 | 0.00 | 0.00 | 0.00 | 69 | 1021.2 |
| 20260902135019 | 87 | 113 | 0.9 | 1.7 | 0.00 | 0.00 | 0.00 | 69 | 1021.2 |
| 20260902134020 | 85 | 60 | 0.9 | 1.7 | 0.00 | 0.00 | 0.00 | 71 | 1021.2 |
| 20260902133019 | 83 | 27 | 0.9 | 4.3 | 0.00 | 0.00 | 0.00 | 74 | 1021.3 |
| 20260902132017 | 81 | 18 | 0.9 | 1.7 | 0.00 | 0.00 | 0.00 | 79 | 1021.2 |
| 20260902131017 | 78 | 10 | 0.9 | 1.7 | 0.00 | 0.00 | 0.00 | 86 | 1021.2 |
| 20260902130017 | 75 | 7 | 0.9 | 2.6 | 0.00 | 0.00 | 0.00 | 96 | 1021.2 |
| 20260902125017 | 74 | 13 | 0.9 | 1.7 | 0.00 | 0.00 | 0.00 | 98 | 1021.2 |
| 20260902124017 | 73 | 66 | 0.9 | 1.7 | 0.00 | 0.00 | 0.00 | 98 | 1021.1 |
| 20260902123018 | 72 | 60 | 0.9 | 0.9 | 0.00 | 0.00 | 0.00 | 98 | 1021.0 |
| 20260902122039 | 70 | 56 | 0.0 | 0.9 | 0.00 | 0.00 | 0.00 | 98 | 1020.9 |
| 20260902121022 | 70 | 41 | 0.9 | 0.9 | 0.00 | 0.00 | 0.00 | 98 | 1020.8 |
| 20260902120018 | 69 | 28 | 0.0 | 0.9 | 0.00 | 0.00 | 0.00 | 98 | 1020.7 |
| 20260902115021 | 68 | 55 | 0.0 | 0.9 | 0.00 | 0.00 | 0.00 | 98 | 1020.6 |
| 20260902114018 | 68 | 52 | 0.0 | 0.9 | 0.00 | 0.00 | 0.00 | 98 | 1020.5 |
| 20260902113019 | 68 | 55 | 0.0 | 0.9 | 0.00 | 0.00 | 0.00 | 98 | 1020.5 |
| 20260902112018 | 68 | 66 | 0.0 | 0.9 | 0.00 | 0.00 | 0.00 | 98 | 1020.3 |
| 20260902111018 | 68 | 69 | 0.0 | 0.9 | 0.00 | 0.00 | 0.00 | 98 | 1020.3 |
| 20260902110018 | 68 | 78 | 0.0 | 0.9 | 0.00 | 0.00 | 0.00 | 98 | 1020.3 |
| 20260902105039 | 67 | 54 | 0.0 | 0.9 | 0.00 | 0.00 | 0.00 | 98 | 1020.4 |
| 20260902104019 | 67 | 74 | 0.0 | 0.9 | 0.00 | 0.00 | 0.00 | 98 | 1020.3 |
| 20260902103039 | 68 | 87 | 0.0 | 0.9 | 0.00 | 0.00 | 0.00 | 98 | 1020.3 |
| 20260902102019 | 68 | 72 | 0.0 | 0.9 | 0.00 | 0.00 | 0.00 | 98 | 1020.3 |
| 20260902101039 | 68 | 65 | 0.0 | 0.9 | 0.00 | 0.00 | 0.00 | 98 | 1020.2 |
| 20260902100016 | 68 | 69 | 0.0 | 0.9 | 0.00 | 0.00 | 0.00 | 98 | 1020.1 |
| 20260902095020 | 68 | 65 | 0.0 | 0.9 | 0.00 | 0.00 | 0.00 | 98 | 1020.1 |
| 20260902094019 | 69 | 42 | 0.0 | 0.9 | 0.00 | 0.00 | 0.00 | 98 | 1020.1 |
| 20260902093021 | 68 | 67 | 0.0 | 0.9 | 0.00 | 0.00 | 0.00 | 98 | 1020.1 |
| 20260902092020 | 68 | 78 | 0.0 | 0.9 | 0.00 | 0.00 | 0.00 | 98 | 1020.0 |
| 20260902091017 | 68 | 89 | 0.0 | 0.9 | 0.00 | 0.00 | 0.00 | 98 | 1020.0 |
| 20260902090017 | 68 | 75 | 0.0 | 0.9 | 0.00 | 0.00 | 0.00 | 97 | 1019.9 |
| 20260902085017 | 68 | 57 | 0.0 | 0.9 | 0.00 | 0.00 | 0.00 | 98 | 1019.8 |
| 20260902084017 | 69 | 57 | 0.0 | 0.9 | 0.00 | 0.00 | 0.00 | 98 | 1019.7 |
| 20260902083039 | 69 | 76 | 0.0 | 0.9 | 0.00 | 0.00 | 0.00 | 98 | 1019.6 |
| 20260902082038 | 69 | 93 | 0.0 | 0.9 | 0.00 | 0.00 | 0.00 | 97 | 1019.6 |
| 20260902081021 | 69 | 60 | 0.0 | 0.9 | 0.00 | 0.00 | 0.00 | 97 | 1019.5 |
| 20260902080018 | 69 | 75 | 0.0 | 0.9 | 0.00 | 0.00 | 0.00 | 97 | 1019.4 |
| 20260902075018 | 69 | 92 | 0.0 | 0.9 | 0.00 | 0.00 | 0.00 | 97 | 1019.4 |
| 20260902074018 | 69 | 72 | 0.0 | 0.9 | 0.00 | 0.00 | 0.00 | 97 | 1019.4 |
| 20260902073018 | 69 | 84 | 0.0 | 0.9 | 0.00 | 0.00 | 0.00 | 97 | 1019.5 |
| 20260902072038 | 69 | 74 | 0.0 | 0.9 | 0.00 | 0.00 | 0.00 | 97 | 1019.5 |
| 20260902071019 | 68 | 94 | 0.0 | 0.9 | 0.00 | 0.00 | 0.00 | 97 | 1019.4 |
| 20260902070038 | 68 | 94 | 0.0 | 0.9 | 0.00 | 0.00 | 0.00 | 97 | 1019.4 |
| 20260902065020 | 69 | 89 | 0.0 | 0.9 | 0.00 | 0.00 | 0.00 | 97 | 1019.4 |
| 20260902064021 | 69 | 97 | 0.0 | 1.7 | 0.00 | 0.00 | 0.00 | 97 | 1019.4 |
| 20260902063041 | 70 | 88 | 0.0 | 0.9 | 0.00 | 0.00 | 0.00 | 97 | 1019.5 |
| 20260902062019 | 70 | 91 | 0.0 | 0.9 | 0.00 | 0.00 | 0.00 | 97 | 1019.5 |
| 20260902061021 | 70 | 92 | 0.0 | 0.9 | 0.00 | 0.00 | 0.00 | 97 | 1019.5 |
| 20260902060016 | 70 | 78 | 0.0 | 0.9 | 0.00 | 0.00 | 0.00 | 97 | 1019.6 |
| 20260902055021 | 70 | 77 | 0.0 | 0.9 | 0.00 | 0.00 | 0.00 | 97 | 1019.6 |
| 20260902054019 | 70 | 34 | 0.0 | 0.9 | 0.00 | 0.00 | 0.00 | 97 | 1019.6 |
| 20260902053021 | 70 | 69 | 0.0 | 0.9 | 0.00 | 0.00 | 0.00 | 97 | 1019.6 |
| 20260902052020 | 70 | 76 | 0.0 | 0.0 | 0.00 | 0.00 | 0.00 | 97 | 1019.5 |
| 20260902051017 | 70 | 108 | 0.0 | 0.9 | 0.00 | 0.00 | 0.00 | 97 | 1019.6 |
| 20260902050018 | 70 | 88 | 0.0 | 0.9 | 0.00 | 0.00 | 0.00 | 97 | 1019.6 |
| 20260902045017 | 70 | 101 | 0.0 | 0.9 | 0.00 | 0.00 | 0.00 | 96 | 1019.6 |
| 20260902044018 | 70 | 91 | 0.0 | 0.9 | 0.00 | 0.00 | 0.00 | 96 | 1019.5 |
| 20260902043018 | 71 | 92 | 0.0 | 0.9 | 0.00 | 0.00 | 0.00 | 96 | 1019.6 |
| 20260902042018 | 71 | 31 | 0.0 | 0.9 | 0.00 | 0.00 | 0.00 | 96 | 1019.6 |
| 20260902041018 | 71 | 101 | 0.0 | 0.9 | 0.00 | 0.00 | 0.00 | 96 | 1019.6 |
| 20260902040046 | 71 | 88 | 0.0 | 0.9 | 0.00 | 0.00 | 0.00 | 96 | 1019.6 |
| 20260902035039 | 71 | 128 | 0.0 | 0.9 | 0.00 | 0.00 | 0.00 | 96 | 1019.6 |
| 20260902034018 | 72 | 102 | 0.0 | 0.9 | 0.00 | 0.00 | 0.00 | 96 | 1019.6 |
| 20260902033021 | 72 | 46 | 0.0 | 0.9 | 0.00 | 0.00 | 0.00 | 96 | 1019.6 |
| 20260902032018 | 72 | 48 | 0.0 | 0.9 | 0.00 | 0.00 | 0.00 | 96 | 1019.5 |
| 20260902031020 | 72 | 19 | 0.0 | 0.9 | 0.00 | 0.00 | 0.00 | 96 | 1019.5 |
| 20260902030019 | 72 | 65 | 0.0 | 0.9 | 0.00 | 0.00 | 0.00 | 96 | 1019.5 |
| 20260902025019 | 72 | 48 | 0.0 | 0.9 | 0.00 | 0.00 | 0.00 | 96 | 1019.6 |
| 20260902024019 | 73 | 68 | 0.0 | 0.9 | 0.00 | 0.00 | 0.00 | 95 | 1019.6 |
| 20260902023019 | 73 | 98 | 0.0 | 0.9 | 0.00 | 0.00 | 0.00 | 95 | 1019.6 |
| 20260902022019 | 73 | 82 | 0.0 | 0.9 | 0.00 | 0.00 | 0.00 | 94 | 1019.6 |
| 20260902021019 | 73 | 82 | 0.0 | 0.9 | 0.00 | 0.00 | 0.00 | 94 | 1019.6 |
| 20260902020038 | 73 | 52 | 0.0 | 1.7 | 0.00 | 0.00 | 0.00 | 94 | 1019.6 |
| 20260902015040 | 74 | 27 | 0.0 | 1.7 | 0.00 | 0.00 | 0.00 | 93 | 1019.5 |
| 20260902014020 | 74 | 30 | 0.0 | 1.7 | 0.00 | 0.00 | 0.00 | 92 | 1019.4 |
| 20260902013018 | 74 | 60 | 0.0 | 0.9 | 0.00 | 0.00 | 0.00 | 91 | 1019.4 |
| 20260902012019 | 75 | 11 | 0.0 | 0.9 | 0.00 | 0.00 | 0.00 | 92 | 1019.2 |
| 20260902011017 | 75 | 33 | 0.0 | 0.9 | 0.00 | 0.00 | 0.00 | 90 | 1019.2 |
| 20260902010017 | 76 | 34 | 0.0 | 0.9 | 0.00 | 0.00 | 0.00 | 89 | 1019.1 |
| 20260902005017 | 77 | 39 | 0.0 | 0.9 | 0.00 | 0.00 | 0.00 | 88 | 1019.0 |
| 20260902004017 | 78 | 21 | 0.0 | 0.9 | 0.00 | 0.00 | 0.00 | 84 | 1019.1 |
| 20260902003018 | 79 | 16 | 0.0 | 0.9 | 0.00 | 0.00 | 0.00 | 83 | 1019.1 |
| 20260902002022 | 80 | 12 | 0.0 | 0.9 | 0.00 | 0.00 | 0.00 | 82 | 1019.1 |
| 20260902001020 | 81 | 17 | 0.0 | 0.0 | 0.00 | 0.00 | 0.00 | 78 | 1019.1 |
| 20260902000018 | 82 | 353 | 0.0 | 0.9 | 0.00 | 0.00 | 0.00 | 76 | 1019.1 |
| 20260901235038 | 83 | 358 | 0.0 | 0.9 | 0.00 | 0.00 | 0.00 | 75 | 1019.2 |
| 20260901234019 | 84 | 9 | 0.0 | 0.9 | 0.00 | 0.00 | 0.00 | 72 | 1019.2 |
| 20260901233019 | 84 | 5 | 0.0 | 0.9 | 0.00 | 0.00 | 0.00 | 71 | 1019.2 |
| 20260901232018 | 85 | 354 | 0.0 | 0.9 | 0.00 | 0.00 | 0.00 | 71 | 1019.2 |
| 20260901231038 | 86 | 10 | 0.9 | 2.6 | 0.00 | 0.00 | 0.00 | 69 | 1019.2 |
| 20260901230020 | 87 | 14 | 0.0 | 1.7 | 0.00 | 0.00 | 0.00 | 68 | 1019.2 |
| 20260901225020 | 88 | 14 | 0.0 | 1.7 | 0.00 | 0.00 | 0.00 | 67 | 1019.2 |
| 20260901224019 | 88 | 1 | 0.9 | 2.6 | 0.00 | 0.00 | 0.00 | 63 | 1019.2 |
| 20260901223021 | 89 | 0 | 0.9 | 3.5 | 0.00 | 0.00 | 0.00 | 61 | 1019.1 |
| 20260901222017 | 90 | 345 | 0.9 | 3.5 | 0.00 | 0.00 | 0.00 | 59 | 1019.0 |
| 20260901221016 | 90 | 28 | 0.9 | 1.7 | 0.00 | 0.00 | 0.00 | 63 | 1019.0 |
| 20260901220020 | 91 | 355 | 0.9 | 2.6 | 0.00 | 0.00 | 0.00 | 60 | 1019.0 |
| 20260901215022 | 92 | 351 | 1.7 | 4.3 | 0.00 | 0.00 | 0.00 | 59 | 1019.0 |
| 20260901214022 | 92 | 355 | 0.0 | 2.6 | 0.00 | 0.00 | 0.00 | 56 | 1019.0 |